LJC weather

La Jagua De Ibir Airport
La Jagua De Ibir, César Department, Colombia

Public forecast

Using degrees Celsius for public forecast. Weather courtesy of forecast.io.

Closest aviation weather report (METAR) to La Jagua De Ibir Airport

Closest report is Alfonso López Pumarejo Airport, 51.8 nm (95.9 km) NNE. Retrieved 2019/10/14 00:00 UTC (28 minutes ago):

SKVP 140000Z 00000KT 9999 FEW020 SCT100 26/23 A2985

Closest aviation forecast (TAF) to La Jagua De Ibir Airport

Forecast is more than 12 hours old.

Closest forecast is Villa del Rosario Airport, 84.2 nm (156.0 km) ENE. Retrieved 2019/09/09 18:00 UTC (1 month ago):

TAF SVVS 091700Z 0918/1018 18004KT 9999 BKN016 TX30/0919Z TN22/1008Z TEMPO 0919/0921 9000 DZ TEMPO 0922/1002 24005KT 9999 SCT016 SCT150